Last 24 Hours

OV-KT Top 8000'

Hourly Data | America/Los_Angeles
as of 8/31/26 4:26 PM PDT
Date & Time Temp (°F) RH (%) Dew Pt (°F) Wet Bulb (°F) Wind Spd (mph) Wind Gust (mph) Daily Min Temp (°F) Daily Max Temp (°F) Daily Max Wind (mph)
8/31/26 - 1600 66.0 42 42.4 53.1 20.8 45.6 52.6 71.2 45.6
8/31/26 - 1500 68.3 38 41.7 53.5 15.2 38.8 52.6 71.2 38.8
8/31/26 - 1400 69.8 36 41.7 54.0 13.7 33.7 52.6 71.2 33.7
8/31/26 - 1300 69.5 37 42.0 54.0 14.8 32.0 52.6 71.2 32.8
8/31/26 - 1200 69.6 36 41.2 53.7 11.0 29.9 52.6 71.2 32.8
8/31/26 - 1100 69.4 33 38.7 52.6 9.8 24.2 52.6 71.2 32.8
8/31/26 - 1000 66.8 35 38.2 51.5 9.6 32.8 52.6 68.8 32.8
8/31/26 - 0900 65.3 36 37.8 50.8 8.4 31.4 52.6 66.5 31.4
8/31/26 - 0800 60.8 39 35.6 48.3 9.2 23.7 52.6 65.3 28.0
8/31/26 - 0700 53.2 45 32.5 43.8 10.7 28.0 52.6 56.0 28.0
8/31/26 - 0600 53.4 46 33.2 44.1 8.5 17.8 53.0 55.2 20.7
8/31/26 - 0500 53.5 46 33.2 44.2 15.4 20.7 53.2 55.2 20.7
8/31/26 - 0400 53.6 44 32.4 44.0 12.8 20.4 53.5 55.2 20.4
8/31/26 - 0300 53.9 45 33.0 44.3 11.9 18.8 53.6 55.2 18.8
8/31/26 - 0200 54.4 44 32.9 44.5 10.7 17.9 54.3 55.2 17.9
8/31/26 - 0100 54.6 42 31.8 44.2 8.6 12.5 54.3 55.2 12.5
8/31/26 - 0000 56.1 39 31.4 44.8 4.2 10.3 47.8 70.8 37.6
8/30/26 - 2300 56.6 44 35.2 46.4 5.6 21.1 47.8 70.8 37.6
8/30/26 - 2200 55.6 52 38.4 47.3 19.3 27.1 47.8 70.8 37.6
8/30/26 - 2100 56.2 54 40.0 48.2 17.4 24.2 47.8 70.8 37.6
8/30/26 - 2000 59.5 49 40.6 49.9 11.7 21.4 47.8 70.8 37.6
8/30/26 - 1900 62.5 46 41.5 51.4 9.8 24.7 47.8 70.8 37.6
8/30/26 - 1800 65.1 43 41.9 52.5 13.0 30.8 47.8 70.8 37.6
8/30/26 - 1700 67.3 40 42.4 53.5 15.1 33.5 47.8 70.8 37.6
8/30/26 - 1600 68.6 38 42.1 53.8 14.4 37.6 47.8 70.8 37.6
Max 69.8 54 42.4 54.0 20.8 45.6 54.3 71.2 45.6
Avg 61.2 42 37.7 49.1 12.1 26.4 - - -
Min 53.2 33 31.4 43.8 4.2 10.3 47.8 55.2 12.5